This is the latest recevied weather packets stored in our database for station/object K7OWW-2. If no packets are shown the sender has not sent any weather packets the latest 10 day(s).
| Time | Temp. | Humidity | Pressure | Rain* | Wind** | Luminosity | Snow |
|---|---|---|---|---|---|---|---|
| 1787377755 | 12.78° C | 72% | 1013.3 hPa | 0 mm | - | - | - |
| 1787377457 | 12.78° C | 71% | 1013.3 hPa | 0 mm | - | - | - |
| 1787377155 | 13.33° C | 71% | 1013.3 hPa | 0 mm | - | - | - |
| 1787376555 | 13.33° C | 71% | 1013.3 hPa | 0 mm | - | - | - |
| 1787375955 | 13.33° C | 69% | 1013.2 hPa | 0 mm | - | - | - |
| 1787375657 | 13.33° C | 68% | 1013.1 hPa | 0 mm | - | - | - |
| 1787375355 | 13.89° C | 67% | 1013.1 hPa | 0 mm | - | - | - |
| 1787374755 | 14.44° C | 66% | 1013.1 hPa | 0 mm | - | - | - |
| 1787374155 | 14.44° C | 64% | 1013 hPa | 0 mm | - | - | - |
| 1787373857 | 14.44° C | 64% | 1012.9 hPa | 0 mm | - | - | - |
| 1787373555 | 15° C | 63% | 1012.9 hPa | 0 mm | - | - | - |
| 1787372955 | 15.56° C | 62% | 1012.7 hPa | 0 mm | - | - | - |
| 1787372355 | 16.11° C | 60% | 1012.6 hPa | 0 mm | - | - | - |
| 1787371755 | 16.67° C | 59% | 1012.6 hPa | 0 mm | - | - | - |
| 1787371155 | 17.22° C | 58% | 1012.6 hPa | 0 mm | - | - | - |
| 1787370555 | 17.78° C | 54% | 1012.5 hPa | 0 mm | - | - | - |
| 1787369955 | 18.33° C | 52% | 1012.4 hPa | 0 mm | - | - | - |
| 1787368755 | 20° C | 47% | 1012.3 hPa | 0 mm | - | - | - |
| 1787368155 | 21.11° C | 46% | 1012.2 hPa | 0 mm | - | - | - |
| 1787367555 | 21.67° C | 42% | 1012.1 hPa | 0 mm | - | - | - |
| 1787366955 | 22.78° C | 39% | 1012 hPa | 0 mm | - | - | - |
| 1787366355 | 23.33° C | 37% | 1011.9 hPa | 0 mm | - | - | - |
| 1787365755 | 23.89° C | 34% | 1011.8 hPa | 0 mm | - | - | - |
| 1787365155 | 23.89° C | 35% | 1011.9 hPa | 0 mm | - | - | - |
| 1787364555 | 24.44° C | 35% | 1011.9 hPa | 0 mm | - | - | - |
* Rain latest hour (hover to see other rain measurements)
** Current wind speed in m/s (hover to see current wind gust speed)